createdAt,value
2023-02-21T00:00:10.796Z,83.79
2023-02-21T00:03:26.378Z,82.08
2023-02-21T00:06:34.393Z,81.03
2023-02-21T00:09:42.970Z,79.90
2023-02-21T00:12:51.461Z,78.07
2023-02-21T00:15:59.939Z,76.74
2023-02-21T00:19:08.358Z,76.66
2023-02-21T00:22:23.323Z,75.36
2023-02-21T00:25:31.380Z,76.17
2023-02-21T00:28:46.329Z,76.10
2023-02-21T00:31:47.957Z,75.74
2023-02-21T00:35:02.372Z,75.88
2023-02-21T00:38:05.041Z,75.82
2023-02-21T00:41:19.365Z,76.13
2023-02-21T00:44:21.053Z,75.03
2023-02-21T00:47:35.309Z,75.85
2023-02-21T00:50:44.068Z,74.65
2023-02-21T00:53:52.339Z,74.47
2023-02-21T00:57:00.881Z,75.65
2023-02-21T01:00:10.342Z,75.34
2023-02-21T01:03:25.357Z,75.57
2023-02-21T01:06:33.346Z,74.87
2023-02-21T01:09:48.361Z,74.58
2023-02-21T01:12:56.357Z,74.60
2023-02-21T01:16:13.514Z,74.12
2023-02-21T01:19:28.398Z,74.36
2023-02-21T01:22:37.234Z,75.17
2023-02-21T01:25:45.344Z,75.50
2023-02-21T01:28:53.945Z,75.60
2023-02-21T01:32:02.407Z,75.54
2023-02-21T01:35:17.420Z,75.05
2023-02-21T01:38:26.041Z,75.16
2023-02-21T01:41:34.322Z,75.44
2023-02-21T01:44:53.340Z,74.84
2023-02-21T01:48:08.479Z,74.82
2023-02-21T01:51:14.351Z,74.34
2023-02-21T01:54:32.363Z,74.19
2023-02-21T01:57:48.353Z,74.72
2023-02-21T02:00:50.559Z,74.22
2023-02-21T02:04:08.919Z,72.78
2023-02-21T02:07:17.370Z,72.62
2023-02-21T02:10:30.080Z,72.70
2023-02-21T02:13:54.357Z,72.16
2023-02-21T02:17:38.465Z,72.29
2023-02-21T02:21:14.627Z,72.34
2023-02-21T02:24:44.396Z,71.40
2023-02-21T02:28:06.082Z,71.94
2023-02-21T02:31:39.508Z,72.04
2023-02-21T02:34:52.992Z,72.74
2023-02-21T02:38:26.358Z,73.22
2023-02-21T02:41:40.509Z,73.06
2023-02-21T02:45:07.379Z,73.03
2023-02-21T02:48:23.575Z,73.23
2023-02-21T02:51:41.389Z,72.99
2023-02-21T02:54:50.402Z,72.93
2023-02-21T02:58:00.668Z,72.12
2023-02-21T03:01:26.419Z,71.79
2023-02-21T03:04:59.360Z,72.14
2023-02-21T03:08:26.892Z,72.40
2023-02-21T03:11:54.416Z,71.39
2023-02-21T03:15:03.096Z,71.81
2023-02-21T03:18:27.402Z,72.25
2023-02-21T03:25:26.386Z,71.82
2023-02-21T03:28:43.410Z,72.12
2023-02-21T03:31:49.747Z,71.71
2023-02-21T03:35:04.397Z,72.12
2023-02-21T03:38:19.387Z,72.30
2023-02-21T03:41:27.370Z,71.31
2023-02-21T03:44:42.405Z,70.68
2023-02-21T03:47:44.191Z,70.77
2023-02-21T03:51:00.400Z,70.35
2023-02-21T03:54:08.377Z,70.45
2023-02-21T03:57:17.221Z,69.79
2023-02-21T04:00:26.445Z,70.22
2023-02-21T04:03:41.385Z,70.66
2023-02-21T04:06:49.409Z,69.87
2023-02-21T04:09:58.174Z,70.32
2023-02-21T04:13:06.423Z,70.20
2023-02-21T04:16:22.421Z,70.09
2023-02-21T04:19:37.432Z,69.71
2023-02-21T04:22:54.482Z,69.36
2023-02-21T04:26:09.385Z,69.28
2023-02-21T04:29:17.929Z,69.50
2023-02-21T04:32:32.529Z,69.81
2023-02-21T04:35:40.891Z,70.27
2023-02-21T04:38:55.427Z,69.81
2023-02-21T04:42:10.381Z,69.61
2023-02-21T04:45:18.454Z,70.14
2023-02-21T04:48:33.395Z,70.32
2023-02-21T04:51:35.262Z,70.32
2023-02-21T05:02:38.395Z,70.25
2023-02-21T05:05:53.405Z,70.44
2023-02-21T05:09:02.083Z,70.93
2023-02-21T05:12:16.471Z,70.85
2023-02-21T05:15:18.246Z,70.64
2023-02-21T05:18:32.449Z,70.95
2023-02-21T05:21:40.983Z,71.18
2023-02-21T05:24:49.480Z,70.67
2023-02-21T05:28:04.435Z,70.78
2023-02-21T05:31:13.636Z,70.84
2023-02-21T05:34:28.441Z,71.32
2023-02-21T05:37:31.426Z,71.38
2023-02-21T05:40:48.449Z,70.85
2023-02-21T05:47:48.393Z,71.54
2023-02-21T05:51:22.411Z,71.85
2023-02-21T05:54:31.261Z,71.74
2023-02-21T05:57:44.527Z,71.97
2023-02-21T06:00:53.778Z,72.44
2023-02-21T06:04:08.440Z,72.26
2023-02-21T06:07:16.994Z,72.12
2023-02-21T06:10:31.473Z,71.83
2023-02-21T06:13:39.446Z,71.71
2023-02-21T06:16:55.468Z,71.34
2023-02-21T06:20:03.560Z,71.27
2023-02-21T06:23:19.497Z,70.76
2023-02-21T06:26:28.420Z,67.89
2023-02-21T06:29:43.445Z,68.70
2023-02-21T06:32:51.413Z,68.14
2023-02-21T06:36:12.421Z,65.58
2023-02-21T06:39:22.118Z,67.02
2023-02-21T07:09:23.918Z,67.93
2023-02-21T07:13:11.470Z,67.91
2023-02-21T07:20:18.487Z,67.96
2023-02-21T07:35:42.621Z,65.30
2023-02-21T07:43:21.488Z,64.21
2023-02-21T07:54:24.482Z,63.95
2023-02-21T08:05:44.429Z,63.16
2023-02-21T08:12:31.571Z,63.11
2023-02-21T08:15:39.617Z,63.04
2023-02-21T08:19:30.536Z,62.96
2023-02-21T08:26:39.686Z,62.56
2023-02-21T08:29:51.658Z,62.26
2023-02-21T08:33:08.907Z,62.30
2023-02-21T08:40:31.231Z,62.08
2023-02-21T08:55:16.501Z,61.73
2023-02-21T08:58:25.476Z,61.61
2023-02-21T09:01:50.553Z,61.60
2023-02-21T09:05:14.652Z,61.55
2023-02-21T09:08:35.579Z,60.86
2023-02-21T09:11:44.666Z,61.09
2023-02-21T09:14:53.597Z,60.65
2023-02-21T09:18:02.045Z,60.73
2023-02-21T09:22:01.890Z,60.85
2023-02-21T09:25:53.222Z,60.51
2023-02-21T09:29:46.227Z,60.44
2023-02-21T09:33:08.202Z,61.04
2023-02-21T09:36:42.523Z,60.62
2023-02-21T09:43:37.595Z,60.38
2023-02-21T09:47:04.339Z,60.81
2023-02-21T09:55:04.568Z,61.13
2023-02-21T09:58:22.489Z,61.26
2023-02-21T10:01:46.932Z,60.96
2023-02-21T10:05:22.863Z,60.90
2023-02-21T10:08:51.815Z,60.60
2023-02-21T10:20:09.466Z,59.93
2023-02-21T10:31:56.600Z,60.93
2023-02-21T10:43:43.332Z,60.84
2023-02-21T10:47:23.630Z,61.00
2023-02-21T10:51:10.731Z,61.69
2023-02-21T10:54:23.455Z,61.91
2023-02-21T10:57:34.527Z,62.04
2023-02-21T11:00:53.581Z,62.20
2023-02-21T11:04:13.511Z,62.22
2023-02-21T11:11:47.785Z,62.32
2023-02-21T11:15:17.426Z,62.38
2023-02-21T11:22:47.578Z,62.23
2023-02-21T11:26:07.391Z,62.16
2023-02-21T11:29:29.037Z,61.83
2023-02-21T11:45:10.762Z,62.33
2023-02-21T11:48:20.322Z,62.38
2023-02-21T11:55:56.523Z,63.53
2023-02-21T11:59:57.679Z,64.02
2023-02-21T12:11:39.057Z,63.93
2023-02-21T12:15:20.607Z,64.15
2023-02-21T12:18:45.520Z,64.33
2023-02-21T12:22:21.522Z,64.92
2023-02-21T12:33:39.599Z,65.08
2023-02-21T12:41:21.565Z,65.56
2023-02-21T12:44:42.373Z,65.22
2023-02-21T12:48:05.692Z,65.16
2023-02-21T12:51:54.740Z,64.96
2023-02-21T12:55:12.717Z,64.99
2023-02-21T12:58:36.715Z,64.73
2023-02-21T13:01:50.500Z,65.28
2023-02-21T13:05:06.585Z,64.62
2023-02-21T13:08:22.591Z,64.54
2023-02-21T13:11:48.313Z,64.12
2023-02-21T13:15:02.537Z,64.55
2023-02-21T13:18:26.708Z,64.87
2023-02-21T13:22:11.822Z,64.42
2023-02-21T13:25:47.953Z,63.74
2023-02-21T13:29:33.303Z,63.79
2023-02-21T13:33:31.652Z,65.11
2023-02-21T13:37:01.734Z,65.91
2023-02-21T13:40:53.903Z,66.22
2023-02-21T13:44:14.573Z,66.10
2023-02-21T13:47:26.388Z,66.24
2023-02-21T13:58:44.848Z,66.12
2023-02-21T14:02:23.682Z,66.07
2023-02-21T14:06:18.674Z,65.92
2023-02-21T14:13:59.461Z,64.17
2023-02-21T14:17:21.006Z,64.16
2023-02-21T14:20:26.183Z,64.34
2023-02-21T14:23:56.800Z,64.69
2023-02-21T14:27:41.713Z,64.52
2023-02-21T14:35:44.823Z,64.20
2023-02-21T14:39:14.592Z,64.44
2023-02-21T14:42:44.898Z,64.79
2023-02-21T14:46:29.631Z,65.02
2023-02-21T14:53:56.602Z,65.54
2023-02-21T14:57:31.594Z,65.61
2023-02-21T15:01:10.623Z,65.93
2023-02-21T15:04:37.558Z,66.17
2023-02-21T15:08:18.627Z,66.48
2023-02-21T15:11:31.970Z,66.90
2023-02-21T15:14:54.691Z,67.42
2023-02-21T15:18:08.620Z,67.76
2023-02-21T15:21:31.650Z,67.86
2023-02-21T15:24:46.577Z,68.38
2023-02-21T15:28:02.197Z,68.78
2023-02-21T15:31:15.000Z,69.11
2023-02-21T15:34:41.525Z,69.18
2023-02-21T15:37:57.650Z,69.33
2023-02-21T15:41:52.859Z,69.08
2023-02-21T15:45:30.817Z,69.53
2023-02-21T15:49:02.609Z,69.92
2023-02-21T16:00:32.748Z,70.14
2023-02-21T16:03:56.578Z,70.07
2023-02-21T16:07:22.330Z,70.15
2023-02-21T16:10:28.577Z,70.37
2023-02-21T16:17:45.117Z,70.64
2023-02-21T16:21:08.609Z,71.09
2023-02-21T16:24:27.776Z,71.42
2023-02-21T16:27:50.990Z,71.64
2023-02-21T16:31:03.705Z,71.96
2023-02-21T16:41:49.670Z,71.95
2023-02-21T17:11:29.602Z,71.20
2023-02-21T17:19:47.057Z,71.23
2023-02-21T17:31:00.079Z,71.00
2023-02-21T17:52:22.667Z,71.06
2023-02-21T17:55:31.394Z,71.44
2023-02-21T17:58:39.634Z,71.34
2023-02-21T18:06:24.688Z,71.48
2023-02-21T18:13:20.666Z,71.84
2023-02-21T18:16:29.515Z,72.18
2023-02-21T18:19:40.222Z,72.35
2023-02-21T18:27:28.735Z,73.26
2023-02-21T18:30:37.850Z,73.62
2023-02-21T18:34:07.737Z,74.32
2023-02-21T18:37:16.620Z,75.01
2023-02-21T18:40:27.099Z,75.22
2023-02-21T19:10:27.734Z,78.04
2023-02-21T19:13:49.737Z,78.30
2023-02-21T19:17:07.458Z,78.44
2023-02-21T19:20:12.146Z,79.12
2023-02-21T19:27:34.705Z,78.07
2023-02-21T19:31:03.674Z,78.45
2023-02-21T19:34:22.689Z,78.61
2023-02-21T19:37:56.630Z,78.74
2023-02-21T19:41:05.685Z,79.21
2023-02-21T19:44:55.702Z,78.77
2023-02-21T19:48:04.510Z,79.65
2023-02-21T19:54:40.522Z,79.36
2023-02-21T19:57:58.900Z,80.43
2023-02-21T20:01:43.881Z,81.22
2023-02-21T20:05:10.505Z,81.82
2023-02-21T20:12:16.682Z,82.91
2023-02-21T20:19:30.752Z,81.64
2023-02-21T20:30:17.818Z,78.88
2023-02-21T20:42:29.775Z,77.58
2023-02-21T20:45:44.782Z,77.23
2023-02-21T20:49:22.008Z,77.59
2023-02-21T21:00:30.693Z,82.42
2023-02-21T21:03:39.849Z,84.56
2023-02-21T21:06:48.650Z,86.02
2023-02-21T21:09:57.722Z,86.88
2023-02-21T21:13:06.681Z,87.89
2023-02-21T21:16:15.618Z,88.57
2023-02-21T21:19:35.717Z,89.14
2023-02-21T21:22:37.614Z,89.58
2023-02-21T21:25:52.721Z,90.14
2023-02-21T21:29:07.688Z,90.58
2023-02-21T21:32:13.684Z,89.66
2023-02-21T21:35:28.698Z,84.60
2023-02-21T21:38:43.710Z,82.11
2023-02-21T21:42:01.417Z,80.35
2023-02-21T21:45:12.690Z,80.61
2023-02-21T21:48:21.577Z,80.11
2023-02-21T21:55:55.778Z,79.95
2023-02-21T22:02:26.804Z,79.77
2023-02-21T22:05:38.768Z,80.03
2023-02-21T22:08:53.772Z,79.84
2023-02-21T22:11:55.700Z,80.19
2023-02-21T22:15:13.707Z,79.91
2023-02-21T22:21:49.834Z,80.41
2023-02-21T22:55:36.695Z,81.60
2023-02-21T22:58:46.129Z,81.98
2023-02-21T23:02:29.302Z,82.37
2023-02-21T23:06:26.597Z,82.25
2023-02-21T23:10:10.150Z,81.75
2023-02-21T23:14:07.817Z,82.06
2023-02-21T23:17:56.741Z,82.21
2023-02-21T23:26:40.066Z,82.66
2023-02-21T23:30:16.432Z,82.89
2023-02-21T23:33:51.746Z,83.34
2023-02-21T23:37:23.490Z,83.33
2023-02-21T23:45:07.459Z,83.92
2023-02-21T23:48:39.528Z,83.93
2023-02-21T23:51:53.765Z,83.95
2023-02-21T23:55:03.756Z,83.89
2023-02-21T23:58:40.850Z,83.65
